CheckWX is a tool to help pilots better visualize weather data.  It is not intended as a substitute for an official pre-flight weather briefing.

21:39:23 UTC

EFKI METAR
Kajaani Airport
Kajaani, Finland
Current

19 mins ago

EFKI 122120Z AUTO 08005KT 9999 VCSH //////CB 11/10 Q1013
Observed
Jul-12 @ 21:20 UTC
Wind
  • 080° at 5 KTS
Visibility
10,000+ meters
Conditions
Area Showers
Cloud Levels
Temperature
11°C / 52°F
Dewpoint
10°C / 50°F
Humidity
94%
Altimeter
29.91" Hg
Pressure
1012.92 hPa
Previous

49 mins ago

EFKI 122050Z AUTO 05005KT 010V080 9999 -SHRA //////CB 12/11 Q1013 RESHRA
Observed
Jul-12 @ 20:50 UTC
Wind
  • 050° at 5 KTS
Visibility
10,000+ meters
Conditions
Light Showers, Rain
Cloud Levels
Temperature
12°C / 54°F
Dewpoint
11°C / 52°F
Humidity
94%
Altimeter
29.91" Hg
Pressure
1012.92 hPa
Previous

1 hour ago

EFKI 122020Z AUTO 06004KT 030V100 9999 SHRA //////CB 12/11 Q1014 RESHRA
Observed
Jul-12 @ 20:20 UTC
Wind
  • 060° at 4 KTS
Visibility
10,000+ meters
Conditions
Showers, Rain
Cloud Levels
Temperature
12°C / 54°F
Dewpoint
11°C / 52°F
Humidity
94%
Altimeter
29.94" Hg
Pressure
1013.92 hPa